Time;durP1;ratioP1;P1;durP2;ratioP2;P2;SDS_P1;SDS_P2;PMS_P1;PMS_P2;Temp;Humidity;BMP_temperature;BMP_pressure;BME280_temperature;BME280_humidity;BME280_pressure;Samples;Min_cycle;Max_cycle;Signal;HPM_P1;HPM_P2
2022/01/08 00:02:11;;;;;;;6.72;2.70;;;1.70;99.90;;;;;;4848612;29;20054;-58
2022/01/08 00:04:37;;;;;;;14.30;2.67;;;1.70;99.90;;;;;;4837251;29;20054;-58
2022/01/08 00:07:03;;;;;;;9.37;2.80;;;1.70;99.90;;;;;;4835051;29;20570;-59
2022/01/08 00:09:28;;;;;;;7.57;2.60;;;1.70;99.90;;;;;;4836077;29;20315;-58
2022/01/08 00:11:54;;;;;;;6.93;2.77;;;1.70;99.90;;;;;;4821265;29;20322;-58
2022/01/08 00:14:22;;;;;;;5.70;2.67;;;1.70;99.90;;;;;;4836872;29;20049;-58
2022/01/08 00:16:48;;;;;;;6.53;2.70;;;1.70;99.90;;;;;;4853595;29;20110;-58
2022/01/08 00:19:14;;;;;;;7.60;3.17;;;1.70;99.90;;;;;;4836356;29;20046;-58
2022/01/08 00:21:40;;;;;;;7.15;3.20;;;1.70;99.90;;;;;;4853338;29;20038;-58
2022/01/08 00:24:06;;;;;;;5.95;2.40;;;1.70;99.90;;;;;;4853179;29;20052;-58
2022/01/08 00:26:32;;;;;;;6.82;2.92;;;1.70;99.90;;;;;;4836755;29;20092;-58
2022/01/08 00:28:59;;;;;;;7.35;2.63;;;1.80;99.90;;;;;;4825134;29;20149;-58
2022/01/08 00:31:24;;;;;;;4.47;2.42;;;1.80;99.90;;;;;;4835897;29;20057;-58
2022/01/08 00:33:52;;;;;;;7.67;2.60;;;1.80;99.90;;;;;;4852935;29;20056;-58
2022/01/08 00:36:17;;;;;;;5.72;2.50;;;1.80;99.90;;;;;;4836090;29;20065;-58
2022/01/08 00:38:43;;;;;;;7.13;2.57;;;1.80;99.90;;;;;;4835727;29;20062;-58
2022/01/08 00:41:09;;;;;;;7.93;2.63;;;1.80;99.90;;;;;;4853168;29;20314;-58
2022/01/08 00:43:35;;;;;;;6.17;2.60;;;1.80;99.90;;;;;;4836182;29;20566;-58
2022/01/08 00:46:01;;;;;;;9.20;2.78;;;1.80;99.90;;;;;;4836558;29;20344;-58
2022/01/08 00:48:26;;;;;;;7.53;2.60;;;1.90;99.90;;;;;;4851983;29;20046;-58
2022/01/08 00:50:52;;;;;;;12.20;3.03;;;1.90;99.90;;;;;;4836246;29;20411;-58
2022/01/08 00:53:19;;;;;;;4.83;2.60;;;1.90;99.90;;;;;;4846590;29;20079;-58
2022/01/08 00:55:45;;;;;;;7.13;2.53;;;1.80;99.90;;;;;;4839545;29;20089;-58
2022/01/08 00:58:11;;;;;;;5.82;2.67;;;1.80;99.90;;;;;;4852553;29;20078;-58
2022/01/08 01:00:37;;;;;;;6.97;2.80;;;1.80;99.90;;;;;;4836327;29;20069;-58
2022/01/08 01:03:03;;;;;;;3.85;2.25;;;1.70;99.90;;;;;;4833722;29;20050;-58
2022/01/08 01:05:29;;;;;;;7.37;2.90;;;1.70;99.90;;;;;;4833497;29;20042;-58
2022/01/08 01:07:55;;;;;;;4.93;2.58;;;1.70;99.90;;;;;;4835532;29;20310;-58
2022/01/08 01:10:21;;;;;;;7.87;3.03;;;1.70;99.90;;;;;;4836173;29;20053;-58
2022/01/08 01:12:46;;;;;;;6.70;3.15;;;1.70;99.90;;;;;;4852401;29;20317;-58
2022/01/08 01:15:16;;;;;;;8.52;3.08;;;1.60;99.90;;;;;;4836367;29;20053;-59
2022/01/08 01:17:44;;;;;;;8.57;3.50;;;1.70;99.90;;;;;;4835259;29;20058;-58
2022/01/08 01:20:13;;;;;;;8.07;3.13;;;1.70;99.90;;;;;;4835876;29;20049;-58
2022/01/08 01:22:58;;;;;;;7.60;3.20;;;1.70;99.90;;;;;;4851505;29;20160;-58
2022/01/08 01:25:36;;;;;;;8.93;3.25;;;1.70;99.90;;;;;;4835904;29;20053;-58
2022/01/08 01:41:45;;;;;;;7.80;3.72;;;1.80;99.90;;;;;;4852421;29;20066;-58
2022/01/08 01:47:03;;;;;;;11.03;4.40;;;1.70;99.90;;;;;;4835754;29;20562;-58
2022/01/08 01:49:43;;;;;;;12.05;4.43;;;1.80;99.90;;;;;;4834637;29;20058;-59
2022/01/08 01:52:12;;;;;;;7.63;4.00;;;1.70;99.90;;;;;;4852068;29;20101;-59
2022/01/08 01:54:38;;;;;;;10.07;4.13;;;1.70;99.90;;;;;;4851279;29;20053;-59
2022/01/08 01:57:06;;;;;;;14.65;4.53;;;1.80;99.90;;;;;;4835733;29;20053;-58
2022/01/08 01:59:34;;;;;;;10.00;3.60;;;1.70;99.90;;;;;;4850535;29;20100;-58
2022/01/08 02:02:00;;;;;;;10.57;3.90;;;1.70;99.90;;;;;;4835747;29;20078;-59
2022/01/08 02:04:26;;;;;;;12.75;3.90;;;1.70;99.90;;;;;;4834496;29;20045;-58
2022/01/08 02:06:52;;;;;;;7.00;3.53;;;1.70;99.90;;;;;;4851700;29;20054;-61
2022/01/08 02:09:18;;;;;;;10.30;4.10;;;1.70;99.90;;;;;;4851251;29;20060;-58
2022/01/08 02:12:08;;;;;;;7.05;3.65;;;1.70;99.90;;;;;;4835245;29;20058;-58
2022/01/08 02:14:36;;;;;;;7.22;3.72;;;1.70;99.90;;;;;;4819995;29;20066;-59
2022/01/08 02:17:06;;;;;;;8.75;3.50;;;1.70;99.90;;;;;;4851555;29;20556;-58
2022/01/08 02:19:32;;;;;;;8.80;3.90;;;1.70;99.90;;;;;;4834012;29;20164;-58
2022/01/08 02:22:00;;;;;;;8.77;3.85;;;1.70;99.90;;;;;;4835356;29;20470;-58
2022/01/08 02:24:26;;;;;;;11.23;4.18;;;1.80;99.90;;;;;;4834765;29;20368;-58
2022/01/08 02:26:52;;;;;;;7.47;3.70;;;1.80;99.90;;;;;;4834785;29;20077;-58
2022/01/08 02:29:21;;;;;;;7.35;3.70;;;1.80;99.90;;;;;;4834785;29;20054;-58
2022/01/08 02:32:04;;;;;;;9.23;4.05;;;1.80;99.90;;;;;;4834910;29;20077;-59
2022/01/08 02:34:30;;;;;;;9.98;3.47;;;1.80;99.90;;;;;;4834826;29;20109;-58
2022/01/08 02:36:57;;;;;;;6.43;3.78;;;1.70;99.90;;;;;;4851734;29;20057;-58
2022/01/08 02:39:24;;;;;;;5.78;3.35;;;1.70;99.90;;;;;;4849534;29;20057;-58
2022/01/08 02:41:54;;;;;;;;;;;1.70;99.90;;;;;;4850715;29;20069;-58
2022/01/08 02:44:20;;;;;;;12.77;3.67;;;1.70;99.90;;;;;;4819584;29;19936;-58
2022/01/08 02:46:46;;;;;;;10.45;4.10;;;1.70;99.90;;;;;;4851632;29;20073;-58
2022/01/08 02:49:11;;;;;;;7.73;3.70;;;1.70;99.90;;;;;;4848543;29;20064;-58
2022/01/08 02:51:37;;;;;;;3.70;2.67;;;1.70;99.90;;;;;;4819091;29;20470;-58
2022/01/08 02:54:06;;;;;;;5.45;3.15;;;1.70;99.90;;;;;;4850560;29;20348;-58
2022/01/08 02:56:32;;;;;;;7.43;2.85;;;1.70;99.90;;;;;;4834698;29;20058;-58
2022/01/08 02:58:58;;;;;;;8.23;2.80;;;1.70;99.90;;;;;;4850934;29;20053;-58
2022/01/08 03:01:29;;;;;;;11.27;2.70;;;1.70;99.90;;;;;;4834995;29;20049;-58
2022/01/08 03:03:56;;;;;;;4.05;2.28;;;1.70;99.90;;;;;;4834169;29;20057;-58
2022/01/08 03:06:22;;;;;;;5.95;2.58;;;1.70;99.90;;;;;;4850879;29;20069;-58
2022/01/08 03:08:48;;;;;;;6.90;2.60;;;1.70;99.90;;;;;;4834054;29;20093;-58
2022/01/08 03:11:13;;;;;;;9.50;2.63;;;1.70;99.90;;;;;;4821028;29;20145;-59
2022/01/08 03:13:39;;;;;;;5.00;2.50;;;1.70;99.90;;;;;;4854487;29;20164;-58
2022/01/08 03:16:05;;;;;;;7.03;2.40;;;1.60;99.90;;;;;;4838052;29;20302;-58
2022/01/08 03:18:30;;;;;;;3.73;2.63;;;1.60;99.90;;;;;;4854554;29;20057;-58
2022/01/08 03:21:12;;;;;;;5.43;2.40;;;1.60;99.90;;;;;;4853973;29;20061;-58
2022/01/08 03:23:45;;;;;;;9.25;2.83;;;1.50;99.90;;;;;;4837355;29;20053;-58
2022/01/08 03:26:11;;;;;;;4.43;2.60;;;1.50;99.90;;;;;;4854744;29;20054;-58
2022/01/08 03:28:37;;;;;;;6.90;2.90;;;1.50;99.90;;;;;;4854292;29;20042;-58
2022/01/08 03:31:02;;;;;;;9.57;2.90;;;1.50;99.90;;;;;;4836610;29;20042;-58
2022/01/08 03:33:28;;;;;;;5.40;2.53;;;1.50;99.90;;;;;;4853103;29;20078;-59
2022/01/08 03:35:54;;;;;;;4.07;2.30;;;1.50;99.90;;;;;;4837294;29;20418;-58
2022/01/08 03:38:20;;;;;;;5.03;2.63;;;1.40;99.90;;;;;;4836937;29;20046;-59
2022/01/08 03:40:46;;;;;;;7.67;2.60;;;1.40;99.90;;;;;;4853705;29;20306;-58
2022/01/08 03:43:11;;;;;;;8.37;2.87;;;1.40;99.90;;;;;;4837160;29;20438;-59
2022/01/08 03:45:37;;;;;;;7.73;2.17;;;1.40;99.90;;;;;;4837745;29;20306;-58
2022/01/08 03:50:47;;;;;;;9.25;2.85;;;1.40;99.90;;;;;;4836628;29;20062;-58
2022/01/08 03:53:13;;;;;;;6.23;2.40;;;1.40;99.90;;;;;;4836539;29;20140;-58
2022/01/08 03:55:39;;;;;;;6.27;2.50;;;1.30;99.90;;;;;;4837605;29;20067;-58
2022/01/08 03:58:05;;;;;;;5.75;2.30;;;1.30;99.90;;;;;;4853891;29;20046;-58
2022/01/08 04:00:31;;;;;;;6.57;2.30;;;1.30;99.90;;;;;;4821752;29;20066;-58
2022/01/08 04:02:57;;;;;;;7.00;2.40;;;1.30;99.90;;;;;;4836549;29;20058;-58
2022/01/08 04:05:23;;;;;;;5.40;2.10;;;1.30;99.90;;;;;;4853661;29;20068;-58
2022/01/08 04:07:48;;;;;;;7.93;2.40;;;1.30;99.90;;;;;;4836536;29;20183;-58
2022/01/08 04:10:14;;;;;;;10.63;2.60;;;1.30;99.90;;;;;;4836472;29;20298;-59
2022/01/08 04:12:50;;;;;;;4.77;2.10;;;1.30;99.90;;;;;;4837356;29;20046;-58
2022/01/08 04:17:48;;;;;;;9.07;2.45;;;1.30;99.90;;;;;;4836727;29;20057;-58
2022/01/08 04:20:15;;;;;;;9.48;2.70;;;1.30;99.90;;;;;;4836829;29;20241;-58
2022/01/08 04:22:40;;;;;;;;;;;1.30;99.90;;;;;;4852229;29;20056;-59
2022/01/08 04:25:07;;;;;;;8.10;2.45;;;1.20;99.90;;;;;;4836875;29;19968;-58
2022/01/08 04:27:33;;;;;;;;;;;1.30;99.90;;;;;;4837182;29;20050;-58
2022/01/08 04:29:58;;;;;;;11.02;2.70;;;1.20;99.90;;;;;;4836891;29;19924;-58
2022/01/08 04:32:24;;;;;;;4.77;1.97;;;1.30;99.90;;;;;;4834110;29;20057;-58
2022/01/08 04:34:49;;;;;;;5.33;2.40;;;1.30;99.90;;;;;;4836627;29;20045;-58
2022/01/08 04:37:15;;;;;;;7.47;2.17;;;1.30;99.90;;;;;;4852852;29;20061;-58
2022/01/08 04:39:41;;;;;;;4.17;2.27;;;1.30;99.90;;;;;;4821338;29;20224;-59
2022/01/08 04:42:06;;;;;;;4.50;2.10;;;1.40;99.90;;;;;;4836251;29;20070;-58
2022/01/08 04:44:32;;;;;;;8.67;2.40;;;1.40;99.90;;;;;;4853063;29;20298;-58
2022/01/08 04:46:58;;;;;;;5.63;2.40;;;1.50;99.90;;;;;;4836191;29;20060;-58
2022/01/08 04:49:23;;;;;;;7.37;2.73;;;1.50;99.90;;;;;;4836770;29;20054;-58
2022/01/08 04:51:49;;;;;;;11.47;3.17;;;1.60;99.90;;;;;;4852475;29;20053;-59
2022/01/08 04:54:15;;;;;;;7.97;2.50;;;1.70;99.90;;;;;;4851405;29;20050;-58
2022/01/08 04:56:41;;;;;;;14.35;2.72;;;1.70;99.90;;;;;;4844094;29;20053;-58
2022/01/08 04:59:07;;;;;;;7.10;2.57;;;1.80;99.90;;;;;;4852813;29;20046;-59
2022/01/08 05:01:32;;;;;;;7.80;2.97;;;1.80;99.90;;;;;;4836097;29;20046;-58
2022/01/08 05:03:58;;;;;;;7.03;2.43;;;1.80;99.90;;;;;;4852935;29;20045;-59
2022/01/08 05:06:24;;;;;;;11.38;3.45;;;1.80;99.90;;;;;;4852213;29;20050;-58
2022/01/08 05:08:50;;;;;;;9.13;2.77;;;1.80;99.90;;;;;;4852624;29;20046;-58
2022/01/08 05:11:15;;;;;;;6.83;2.93;;;1.80;99.90;;;;;;4817322;29;20067;-58
2022/01/08 05:13:43;;;;;;;4.80;2.43;;;1.70;99.90;;;;;;4849151;29;20121;-58
2022/01/08 05:16:09;;;;;;;6.53;2.70;;;1.70;99.90;;;;;;4852517;29;20157;-60
2022/01/08 05:18:35;;;;;;;5.23;2.33;;;1.70;99.90;;;;;;4835684;29;20062;-58
2022/01/08 05:23:56;;;;;;;8.52;2.80;;;1.70;99.90;;;;;;4777133;30;20176;-58
2022/01/08 05:26:25;;;;;;;10.50;2.53;;;1.70;99.90;;;;;;4763065;30;20059;-58
2022/01/08 05:28:54;;;;;;;13.43;3.00;;;1.70;99.90;;;;;;4762264;30;20062;-58
2022/01/08 05:31:22;;;;;;;8.38;2.75;;;1.70;99.90;;;;;;4777409;30;20076;-59
2022/01/08 05:33:49;;;;;;;6.82;2.58;;;1.60;99.90;;;;;;4759418;30;20056;-58
2022/01/08 05:36:14;;;;;;;;;;;1.60;99.90;;;;;;4771725;30;20052;-58
2022/01/08 05:38:40;;;;;;;7.57;2.75;;;1.60;99.90;;;;;;4752862;30;20460;-59
2022/01/08 05:41:06;;;;;;;9.00;2.92;;;1.60;99.90;;;;;;4777668;30;20087;-58
2022/01/08 05:43:33;;;;;;;6.63;2.63;;;1.60;99.90;;;;;;4761124;30;20523;-58
2022/01/08 05:45:59;;;;;;;7.47;2.90;;;1.50;99.90;;;;;;4762893;30;20462;-58
2022/01/08 05:48:25;;;;;;;8.67;2.70;;;1.50;99.90;;;;;;4777010;30;20178;-58
2022/01/08 05:50:51;;;;;;;6.97;2.90;;;1.50;99.90;;;;;;4759193;30;20060;-59
2022/01/08 05:53:18;;;;;;;9.52;2.33;;;1.50;99.90;;;;;;4784262;30;20093;-58
2022/01/08 05:55:44;;;;;;;4.75;2.60;;;1.60;99.90;;;;;;4775810;30;20051;-58
2022/01/08 05:58:09;;;;;;;9.05;2.78;;;1.60;99.90;;;;;;4775061;30;20055;-58
2022/01/08 06:00:35;;;;;;;16.03;3.83;;;1.50;99.90;;;;;;4803935;29;20164;-58
2022/01/08 06:03:01;;;;;;;6.97;2.60;;;1.50;99.90;;;;;;4835334;29;20341;-58
2022/01/08 06:05:26;;;;;;;14.87;2.83;;;1.50;99.90;;;;;;4835275;29;20052;-58
2022/01/08 06:07:52;;;;;;;9.60;2.70;;;1.50;99.90;;;;;;4851321;29;20073;-58
2022/01/08 06:10:19;;;;;;;9.53;3.57;;;1.50;99.90;;;;;;4851452;29;20078;-58
2022/01/08 06:12:48;;;;;;;10.52;2.58;;;1.50;99.90;;;;;;4834510;29;20340;-58
2022/01/08 06:15:14;;;;;;;7.55;2.80;;;1.40;99.90;;;;;;4835149;29;20050;-58
2022/01/08 06:17:40;;;;;;;8.60;2.55;;;1.50;99.90;;;;;;4851881;29;20054;-58
2022/01/08 06:20:07;;;;;;;6.63;2.78;;;1.40;99.90;;;;;;4851602;29;20042;-58
2022/01/08 06:22:33;;;;;;;8.02;2.70;;;1.40;99.90;;;;;;4834112;29;20057;-58
2022/01/08 06:24:59;;;;;;;8.70;3.03;;;1.40;99.90;;;;;;4851531;29;20054;-58
2022/01/08 06:27:24;;;;;;;8.77;3.40;;;1.40;99.90;;;;;;4819950;29;20094;-58
2022/01/08 06:29:50;;;;;;;8.30;2.97;;;1.40;99.90;;;;;;4851904;29;20147;-58
2022/01/08 06:32:16;;;;;;;14.03;3.80;;;1.40;99.90;;;;;;4834374;29;20329;-58
2022/01/08 06:34:43;;;;;;;10.25;4.10;;;1.40;99.90;;;;;;4834747;29;20069;-58
2022/01/08 06:37:08;;;;;;;8.45;3.45;;;1.30;99.90;;;;;;4834843;29;20072;-58
2022/01/08 06:39:35;;;;;;;11.63;3.55;;;1.30;99.90;;;;;;4833553;29;20479;-58
2022/01/08 06:42:01;;;;;;;;;;;1.30;99.90;;;;;;4852475;29;20149;-58
2022/01/08 06:44:27;;;;;;;8.30;3.88;;;1.30;99.90;;;;;;4831114;29;19932;-58
2022/01/08 06:46:52;;;;;;;13.97;4.07;;;1.30;99.90;;;;;;4835202;29;20054;-58
2022/01/08 06:49:18;;;;;;;9.90;4.20;;;1.30;99.90;;;;;;4837713;29;20142;-58
2022/01/08 06:51:44;;;;;;;14.63;5.47;;;1.20;99.90;;;;;;4838205;29;20056;-59
2022/01/08 06:54:09;;;;;;;8.77;4.77;;;1.20;99.90;;;;;;4854106;29;20129;-59
2022/01/08 06:56:35;;;;;;;15.17;4.83;;;1.20;99.90;;;;;;4855302;29;20314;-57
2022/01/08 06:59:01;;;;;;;17.33;5.07;;;1.20;99.90;;;;;;4854953;29;20067;-58
2022/01/08 07:01:26;;;;;;;10.63;5.03;;;1.20;99.90;;;;;;4855320;29;20122;-58
2022/01/08 07:03:55;;;;;;;12.43;4.83;;;1.10;99.90;;;;;;4837630;29;20314;-59
2022/01/08 07:06:21;;;;;;;13.48;5.97;;;1.10;99.90;;;;;;4824088;29;20434;-59
2022/01/08 07:08:47;;;;;;;;;;;1.10;99.90;;;;;;4837814;29;20070;-59
2022/01/08 07:11:13;;;;;;;18.38;5.38;;;1.00;99.90;;;;;;4854893;29;19986;-60
2022/01/08 07:13:38;;;;;;;16.70;5.47;;;1.00;99.90;;;;;;4822955;29;20069;-59
2022/01/08 07:16:05;;;;;;;13.83;5.57;;;1.10;99.90;;;;;;4837762;29;20307;-60
2022/01/08 07:18:30;;;;;;;;;;;1.10;99.90;;;;;;4855059;29;20068;-59
2022/01/08 07:20:56;;;;;;;13.65;5.60;;;1.00;99.90;;;;;;4854018;29;19928;-59
2022/01/08 07:23:22;;;;;;;15.17;6.27;;;1.00;99.90;;;;;;4837126;29;20058;-59
2022/01/08 07:25:47;;;;;;;14.97;5.93;;;1.10;99.90;;;;;;4837049;29;20048;-58
2022/01/08 07:28:13;;;;;;;16.40;5.80;;;1.10;99.90;;;;;;4837507;29;20307;-60
2022/01/08 07:30:39;;;;;;;38.27;6.03;;;1.10;99.90;;;;;;4837085;29;20061;-59
2022/01/08 07:33:04;;;;;;;14.57;6.20;;;1.10;99.90;;;;;;4836787;29;20096;-58
2022/01/08 07:35:30;;;;;;;15.97;6.57;;;1.10;99.90;;;;;;4852985;29;20315;-61
2022/01/08 07:37:56;;;;;;;17.52;7.13;;;1.10;99.90;;;;;;4853120;29;20117;-59
2022/01/08 07:40:24;;;;;;;12.60;6.00;;;1.10;99.90;;;;;;4837329;29;20092;-60
2022/01/08 07:42:50;;;;;;;11.55;6.28;;;1.10;99.90;;;;;;4837781;29;20303;-61
2022/01/08 07:45:17;;;;;;;14.65;5.68;;;1.10;99.90;;;;;;4844730;29;20046;-60
2022/01/08 07:47:43;;;;;;;20.35;6.10;;;1.10;99.90;;;;;;4848452;29;20077;-60
2022/01/08 07:50:09;;;;;;;15.83;5.97;;;1.10;99.90;;;;;;4854639;29;20057;-60
2022/01/08 07:52:36;;;;;;;8.88;5.45;;;1.10;99.90;;;;;;4838957;29;20092;-60
2022/01/08 07:55:02;;;;;;;17.52;6.53;;;1.10;99.90;;;;;;4854432;29;20046;-60
2022/01/08 07:57:27;;;;;;;17.00;6.38;;;1.10;99.90;;;;;;4835793;29;20072;-61
2022/01/08 07:59:53;;;;;;;14.10;6.10;;;1.10;99.90;;;;;;4837313;29;20076;-59
2022/01/08 08:02:20;;;;;;;16.43;5.87;;;1.10;99.90;;;;;;4854331;29;20057;-60
2022/01/08 08:04:45;;;;;;;;;;;1.10;99.90;;;;;;4854568;29;20419;-60
2022/01/08 08:07:11;;;;;;;16.52;6.20;;;1.10;99.90;;;;;;4854511;29;19972;-60
2022/01/08 08:09:37;;;;;;;13.20;5.70;;;1.10;99.90;;;;;;4836623;29;20049;-60
2022/01/08 08:12:04;;;;;;;14.47;5.90;;;1.10;99.90;;;;;;4837273;29;20064;-60
2022/01/08 08:14:31;;;;;;;14.00;6.03;;;1.10;99.90;;;;;;4820524;29;20078;-60
2022/01/08 08:16:57;;;;;;;13.25;5.63;;;1.10;99.90;;;;;;4835884;29;20046;-60
2022/01/08 08:19:22;;;;;;;13.98;5.25;;;1.10;99.90;;;;;;4852498;29;20069;-61
2022/01/08 08:21:48;;;;;;;13.60;5.32;;;1.20;99.90;;;;;;4853780;29;20041;-61
2022/01/08 08:24:18;;;;;;;12.97;5.50;;;1.20;99.90;;;;;;4853172;29;20153;-61
2022/01/08 08:26:44;;;;;;;16.10;5.85;;;1.20;99.90;;;;;;4837344;29;20058;-61
2022/01/08 08:29:10;;;;;;;9.97;5.27;;;1.20;99.90;;;;;;4836814;29;20056;-61
2022/01/08 08:31:36;;;;;;;15.33;5.73;;;1.30;99.90;;;;;;4842467;29;20548;-60
2022/01/08 08:34:02;;;;;;;20.17;5.60;;;1.30;99.90;;;;;;4851836;29;20295;-60
2022/01/08 08:36:27;;;;;;;7.78;4.72;;;1.40;99.90;;;;;;4836756;29;20423;-61
2022/01/08 08:38:53;;;;;;;15.83;5.40;;;1.40;99.90;;;;;;4835710;29;20034;-63
2022/01/08 08:41:19;;;;;;;15.82;4.45;;;1.40;99.90;;;;;;4824834;29;20105;-62
2022/01/08 08:43:45;;;;;;;15.35;4.70;;;1.50;99.90;;;;;;4836491;29;20049;-62
2022/01/08 08:46:11;;;;;;;11.00;5.97;;;1.50;99.90;;;;;;4820396;29;20054;-60
2022/01/08 08:48:37;;;;;;;13.80;4.60;;;1.50;99.90;;;;;;4849264;29;20057;-60
2022/01/08 08:51:02;;;;;;;9.73;4.70;;;1.50;99.90;;;;;;4852662;29;20115;-60
2022/01/08 08:53:28;;;;;;;13.23;4.73;;;1.60;99.90;;;;;;4848047;29;20045;-61
2022/01/08 08:55:54;;;;;;;19.23;4.90;;;1.60;99.90;;;;;;4851734;29;20342;-60
2022/01/08 08:58:19;;;;;;;29.57;5.43;;;1.60;99.90;;;;;;4848200;29;20132;-60
2022/01/08 09:00:45;;;;;;;20.57;5.70;;;1.60;99.90;;;;;;4836400;29;20538;-60
2022/01/08 09:03:12;;;;;;;24.37;5.60;;;1.70;99.90;;;;;;4834891;29;20075;-61
2022/01/08 09:05:43;;;;;;;26.65;6.65;;;1.70;99.90;;;;;;4834681;29;20133;-60
2022/01/08 09:08:08;;;;;;;15.27;5.10;;;1.70;99.90;;;;;;4817649;29;20097;-60
2022/01/08 09:10:34;;;;;;;14.17;6.23;;;1.70;99.90;;;;;;4835976;29;20344;-60
2022/01/08 09:13:00;;;;;;;12.23;5.22;;;1.80;99.90;;;;;;4836168;29;20074;-60
2022/01/08 09:15:26;;;;;;;22.30;5.80;;;1.80;99.90;;;;;;4836381;29;20049;-61
2022/01/08 09:17:58;;;;;;;25.13;5.53;;;1.80;99.90;;;;;;4836452;29;20061;-59
2022/01/08 09:20:29;;;;;;;16.45;6.10;;;1.80;99.90;;;;;;4835847;29;20054;-63
2022/01/08 09:22:56;;;;;;;11.82;5.18;;;1.90;99.90;;;;;;4835736;29;20100;-62
2022/01/08 09:25:21;;;;;;;14.45;4.85;;;1.90;99.90;;;;;;4836077;29;20056;-59
2022/01/08 09:27:47;;;;;;;14.50;5.60;;;2.00;99.90;;;;;;4836268;29;20050;-59
2022/01/08 09:30:13;;;;;;;14.50;5.03;;;2.00;99.90;;;;;;4836447;29;20042;-59
2022/01/08 09:32:43;;;;;;;15.20;5.32;;;2.00;99.90;;;;;;4835984;29;20053;-61
2022/01/08 09:35:10;;;;;;;9.73;4.57;;;2.10;99.90;;;;;;4852659;29;20102;-60
2022/01/08 09:37:38;;;;;;;11.60;5.38;;;2.10;99.90;;;;;;4835342;29;20089;-60
2022/01/08 09:40:05;;;;;;;12.18;5.25;;;2.20;99.90;;;;;;4835603;29;20101;-60
2022/01/08 09:42:31;;;;;;;16.27;4.80;;;2.20;99.90;;;;;;4851619;29;20113;-60
2022/01/08 09:44:56;;;;;;;12.83;4.83;;;2.30;99.90;;;;;;4850380;29;20133;-60
2022/01/08 09:47:22;;;;;;;24.63;5.67;;;2.30;99.90;;;;;;4852742;29;20145;-59
2022/01/08 09:49:49;;;;;;;25.17;6.18;;;2.30;99.90;;;;;;4835915;29;20117;-59
2022/01/08 09:52:14;;;;;;;15.73;5.15;;;2.30;99.90;;;;;;4838329;29;20089;-60
2022/01/08 09:54:40;;;;;;;15.93;4.93;;;2.40;99.90;;;;;;4851362;29;20398;-59
2022/01/08 09:57:06;;;;;;;13.13;4.67;;;2.40;99.90;;;;;;4851297;29;20053;-59
2022/01/08 09:59:31;;;;;;;13.90;4.77;;;2.40;99.90;;;;;;4834713;29;20314;-60
2022/01/08 10:01:59;;;;;;;16.07;5.30;;;2.40;99.90;;;;;;4819830;29;20068;-59
2022/01/08 10:04:27;;;;;;;14.48;4.13;;;2.40;99.90;;;;;;4851874;29;20053;-60
2022/01/08 10:07:12;;;;;;;11.35;4.35;;;2.50;99.90;;;;;;4835215;29;20074;-62
2022/01/08 10:09:38;;;;;;;12.77;4.32;;;2.60;99.90;;;;;;4851760;29;20046;-59
2022/01/08 10:12:04;;;;;;;10.73;3.97;;;2.60;99.90;;;;;;4843722;29;20086;-60
2022/01/08 10:17:13;;;;;;;11.63;3.95;;;2.70;99.90;;;;;;4861412;29;20148;-59
2022/01/08 10:17:43;;;;;;;14.10;3.95;;;2.70;99.90;;;;;;4835132;29;20133;-59
2022/01/08 10:20:08;;;;;;;12.35;3.85;;;2.70;99.90;;;;;;4816902;29;20430;-60
2022/01/08 10:22:34;;;;;;;12.27;4.03;;;2.80;99.90;;;;;;4829303;29;20069;-59
2022/01/08 10:25:18;;;;;;;11.83;4.10;;;2.80;99.90;;;;;;4835530;29;20098;-60
2022/01/08 10:27:44;;;;;;;12.70;4.45;;;2.80;99.90;;;;;;4851327;29;20046;-60
2022/01/08 10:30:23;;;;;;;9.38;4.07;;;2.80;99.90;;;;;;4852435;29;20152;-59
2022/01/08 10:32:56;;;;;;;11.45;3.90;;;2.90;99.90;;;;;;4833699;29;20050;-59
2022/01/08 10:35:49;;;;;;;11.48;3.88;;;2.90;99.90;;;;;;4821838;29;20042;-59
2022/01/08 10:38:16;;;;;;;14.57;4.70;;;3.00;99.90;;;;;;4851253;29;20117;-59
2022/01/08 10:40:42;;;;;;;;;;;3.00;99.90;;;;;;4852032;29;20054;-59
2022/01/08 10:43:40;;;;;;;8.43;3.85;;;3.00;99.90;;;;;;4851915;29;19971;-60
2022/01/08 10:46:18;;;;;;;14.15;4.82;;;3.00;99.90;;;;;;4776939;30;20452;-59
2022/01/08 10:48:46;;;;;;;10.25;4.13;;;3.00;99.90;;;;;;4761596;30;20114;-59
2022/01/08 10:51:25;;;;;;;12.05;4.40;;;3.00;99.90;;;;;;4777213;30;20088;-59
2022/01/08 10:54:03;;;;;;;21.65;5.45;;;3.10;99.90;;;;;;4776834;30;20052;-59
2022/01/08 10:56:56;;;;;;;10.15;4.45;;;3.00;99.90;;;;;;4761920;30;20500;-59
2022/01/08 10:59:24;;;;;;;12.95;5.10;;;3.10;99.90;;;;;;4775645;30;20078;-59
2022/01/08 11:02:03;;;;;;;16.75;4.90;;;3.10;99.90;;;;;;4777079;30;20098;-59
2022/01/08 11:04:46;;;;;;;13.13;5.68;;;3.00;99.90;;;;;;4762087;30;20111;-60
2022/01/08 11:07:31;;;;;;;12.70;5.60;;;3.00;99.90;;;;;;4776867;30;20052;-63
2022/01/08 11:10:08;;;;;;;12.95;5.07;;;3.00;99.90;;;;;;4761651;30;20143;-62
2022/01/08 11:12:37;;;;;;;;;;;3.00;99.90;;;;;;4776642;30;20405;-60
2022/01/08 11:17:42;;;;;;;12.77;5.25;;;3.00;99.90;;;;;;4776540;30;20056;-60
2022/01/08 11:20:14;;;;;;;11.55;5.65;;;3.00;99.90;;;;;;4761103;30;20443;-59
2022/01/08 11:22:42;;;;;;;13.98;6.25;;;3.10;99.90;;;;;;4827505;29;20066;-61
2022/01/08 11:25:16;;;;;;;19.98;6.35;;;3.10;99.90;;;;;;4835048;29;20501;-59
2022/01/08 11:28:11;;;;;;;15.93;6.05;;;3.10;99.90;;;;;;4834547;29;20058;-60
2022/01/08 11:30:41;;;;;;;11.25;5.40;;;3.20;99.90;;;;;;4850749;29;20046;-60
2022/01/08 11:33:14;;;;;;;12.00;6.70;;;3.10;99.90;;;;;;4854641;29;20049;-59
2022/01/08 11:35:42;;;;;;;17.95;6.32;;;3.20;99.90;;;;;;4837268;29;20050;-60
2022/01/08 11:38:10;;;;;;;17.95;6.13;;;3.30;99.90;;;;;;4822278;29;20074;-59
2022/01/08 11:40:41;;;;;;;17.83;6.43;;;3.30;99.90;;;;;;4853647;29;20136;-58
2022/01/08 11:43:09;;;;;;;13.63;6.75;;;3.30;99.90;;;;;;4852913;29;20410;-59
2022/01/08 11:45:47;;;;;;;17.10;6.75;;;3.40;99.90;;;;;;4828669;29;20099;-59
2022/01/08 11:48:14;;;;;;;15.75;6.97;;;3.30;99.90;;;;;;4835789;29;20062;-60
2022/01/08 11:50:48;;;;;;;12.18;7.05;;;3.40;99.90;;;;;;4835656;29;20057;-60
2022/01/08 11:53:18;;;;;;;10.77;6.38;;;3.50;99.90;;;;;;4851571;29;20054;-61
2022/01/08 11:55:47;;;;;;;11.63;7.03;;;3.50;99.90;;;;;;4837370;29;20052;-61
2022/01/08 11:58:26;;;;;;;10.35;6.53;;;3.50;99.90;;;;;;4834912;29;20080;-61
2022/01/08 12:01:01;;;;;;;17.83;7.10;;;3.50;99.90;;;;;;4842630;29;20088;-62
2022/01/08 12:03:40;;;;;;;15.23;6.53;;;3.60;99.90;;;;;;4837481;29;20045;-60
2022/01/08 12:06:34;;;;;;;18.98;6.75;;;3.50;99.90;;;;;;4837108;29;20064;-61
2022/01/08 12:09:07;;;;;;;15.18;6.72;;;3.60;99.90;;;;;;4837118;29;20054;-60
2022/01/08 12:12:02;;;;;;;15.10;6.82;;;3.60;99.90;;;;;;4834304;29;20046;-60
2022/01/08 12:14:45;;;;;;;15.70;6.40;;;3.60;99.90;;;;;;4830903;29;20194;-62
2022/01/08 12:17:20;;;;;;;14.85;6.70;;;3.60;99.90;;;;;;4818519;29;20054;-61
2022/01/08 12:19:51;;;;;;;15.30;7.00;;;3.60;99.90;;;;;;4839665;29;20046;-60
2022/01/08 12:22:20;;;;;;;21.88;7.80;;;3.60;99.90;;;;;;4835327;29;20058;-61
2022/01/08 12:24:49;;;;;;;16.25;7.13;;;3.70;99.90;;;;;;4837184;29;20378;-60
2022/01/08 12:27:33;;;;;;;15.45;7.85;;;3.70;99.90;;;;;;4853673;29;20064;-60
2022/01/08 12:30:01;;;;;;;14.20;7.22;;;3.70;99.90;;;;;;4836658;29;20128;-59
2022/01/08 12:32:37;;;;;;;12.70;7.78;;;3.60;99.90;;;;;;4834502;29;20063;-60
2022/01/08 12:35:14;;;;;;;14.65;7.15;;;3.70;99.90;;;;;;4836913;29;20087;-62
2022/01/08 12:37:43;;;;;;;20.05;7.50;;;3.70;99.90;;;;;;4853073;29;20065;-62
2022/01/08 12:40:11;;;;;;;20.70;8.65;;;3.70;99.90;;;;;;4836609;29;20383;-59
2022/01/08 12:42:44;;;;;;;17.92;7.82;;;3.70;99.90;;;;;;4835788;29;20074;-60
2022/01/08 12:45:19;;;;;;;17.70;8.68;;;3.80;99.90;;;;;;4833901;29;20052;-60
2022/01/08 12:47:45;;;;;;;16.10;9.20;;;3.80;99.90;;;;;;4818186;29;20513;-60
2022/01/08 12:50:18;;;;;;;17.95;8.82;;;3.80;99.90;;;;;;4806409;29;20110;-59
2022/01/08 12:53:05;;;;;;;18.27;9.80;;;3.80;99.90;;;;;;4831972;29;20068;-60
2022/01/08 12:55:50;;;;;;;23.00;10.35;;;3.70;99.90;;;;;;4835599;29;20070;-60
2022/01/08 12:58:20;;;;;;;15.43;10.40;;;3.80;99.90;;;;;;4835785;29;20133;-58
2022/01/08 13:01:05;;;;;;;18.05;9.82;;;3.70;99.90;;;;;;4853000;29;20364;-61
2022/01/08 13:03:32;;;;;;;17.10;10.60;;;3.80;99.90;;;;;;4835559;29;20058;-59
2022/01/08 13:06:20;;;;;;;17.20;10.65;;;3.80;99.90;;;;;;4837443;29;20042;-58
2022/01/08 13:08:48;;;;;;;20.77;10.75;;;3.80;99.90;;;;;;4855634;29;20054;-60
2022/01/08 13:11:16;;;;;;;18.77;11.40;;;3.80;99.90;;;;;;4836206;29;20080;-59
2022/01/08 13:13:45;;;;;;;24.75;12.48;;;3.90;99.90;;;;;;4835821;29;20138;-60
2022/01/08 13:16:17;;;;;;;22.92;12.43;;;3.90;99.90;;;;;;4852612;29;20053;-59
2022/01/08 13:19:09;;;;;;;19.02;11.45;;;3.90;99.90;;;;;;4835077;29;20056;-60
2022/01/08 13:21:42;;;;;;;19.52;10.90;;;3.90;99.90;;;;;;4810547;29;20178;-60
2022/01/08 13:24:19;;;;;;;17.35;11.20;;;3.90;99.90;;;;;;4835560;29;20098;-60
2022/01/08 13:27:07;;;;;;;19.92;11.82;;;3.90;99.90;;;;;;4836081;29;20121;-58
2022/01/08 13:29:34;;;;;;;;;;;3.80;99.90;;;;;;4848842;29;20042;-60